sensor_id;sensor_type;location;lat;lon;timestamp;pressure;altitude;pressure_sealevel;temperature;humidity
8705;BME280;4389;41.932;25.904;2022-09-03T00:01:43;100209.34;;;20.69;100.00
8705;BME280;4389;41.932;25.904;2022-09-03T00:04:18;100225.44;;;20.62;100.00
8705;BME280;4389;41.932;25.904;2022-09-03T00:06:53;100224.22;;;20.45;100.00
8705;BME280;4389;41.932;25.904;2022-09-03T00:09:24;100218.63;;;20.53;100.00
8705;BME280;4389;41.932;25.904;2022-09-03T00:11:59;100232.28;;;20.45;100.00
8705;BME280;4389;41.932;25.904;2022-09-03T00:14:34;100223.38;;;20.38;100.00
8705;BME280;4389;41.932;25.904;2022-09-03T00:17:07;100234.13;;;20.38;100.00
8705;BME280;4389;41.932;25.904;2022-09-03T00:19:40;100232.47;;;20.44;100.00
8705;BME280;4389;41.932;25.904;2022-09-03T00:22:14;100231.66;;;20.43;100.00
8705;BME280;4389;41.932;25.904;2022-09-03T00:24:44;100223.38;;;20.38;100.00
8705;BME280;4389;41.932;25.904;2022-09-03T00:27:17;100218.00;;;20.38;100.00
8705;BME280;4389;41.932;25.904;2022-09-03T00:29:48;100217.38;;;20.36;100.00
8705;BME280;4389;41.932;25.904;2022-09-03T00:32:19;100215.94;;;20.40;100.00
8705;BME280;4389;41.932;25.904;2022-09-03T00:34:55;100218.84;;;20.39;100.00
8705;BME280;4389;41.932;25.904;2022-09-03T00:37:25;100210.97;;;20.37;100.00
8705;BME280;4389;41.932;25.904;2022-09-03T00:39:54;100203.53;;;20.39;100.00
8705;BME280;4389;41.932;25.904;2022-09-03T00:42:34;100206.63;;;20.43;100.00
8705;BME280;4389;41.932;25.904;2022-09-03T00:45:24;100203.13;;;20.42;100.00
8705;BME280;4389;41.932;25.904;2022-09-03T00:48:08;100200.44;;;20.42;100.00
8705;BME280;4389;41.932;25.904;2022-09-03T00:50:45;100200.22;;;20.37;100.00
8705;BME280;4389;41.932;25.904;2022-09-03T00:53:21;100200.44;;;20.42;100.00
8705;BME280;4389;41.932;25.904;2022-09-03T00:55:57;100202.06;;;20.37;100.00
8705;BME280;4389;41.932;25.904;2022-09-03T00:58:40;100203.94;;;20.36;100.00
8705;BME280;4389;41.932;25.904;2022-09-03T01:01:16;100201.25;;;20.36;100.00
8705;BME280;4389;41.932;25.904;2022-09-03T01:03:53;100201.25;;;20.36;100.00
8705;BME280;4389;41.932;25.904;2022-09-03T01:06:29;100196.50;;;20.32;100.00
8705;BME280;4389;41.932;25.904;2022-09-03T01:09:11;100192.75;;;20.26;100.00
8705;BME280;4389;41.932;25.904;2022-09-03T01:11:52;100190.47;;;20.23;100.00
8705;BME280;4389;41.932;25.904;2022-09-03T01:14:25;100190.69;;;20.22;100.00
8705;BME280;4389;41.932;25.904;2022-09-03T01:17:00;100191.94;;;20.32;100.00
8705;BME280;4389;41.932;25.904;2022-09-03T01:22:55;100199.34;;;20.24;100.00
8705;BME280;4389;41.932;25.904;2022-09-03T01:25:38;100198.94;;;20.07;100.00
8705;BME280;4389;41.932;25.904;2022-09-03T01:28:20;100199.56;;;20.09;100.00
8705;BME280;4389;41.932;25.904;2022-09-03T01:30:54;100203.91;;;20.10;100.00
8705;BME280;4389;41.932;25.904;2022-09-03T01:33:28;100206.81;;;20.15;100.00
8705;BME280;4389;41.932;25.904;2022-09-03T01:36:02;100213.00;;;20.16;100.00
8705;BME280;4389;41.932;25.904;2022-09-03T01:38:39;100213.63;;;20.18;100.00
8705;BME280;4389;41.932;25.904;2022-09-03T01:41:15;100214.25;;;20.20;100.00
8705;BME280;4389;41.932;25.904;2022-09-03T01:44:10;100222.50;;;20.18;100.00
8705;BME280;4389;41.932;25.904;2022-09-03T01:46:42;100227.06;;;20.18;100.00
8705;BME280;4389;41.932;25.904;2022-09-03T01:49:17;100230.75;;;20.10;100.00
8705;BME280;4389;41.932;25.904;2022-09-03T01:51:53;100233.88;;;20.07;100.00
8705;BME280;4389;41.932;25.904;2022-09-03T01:54:45;100228.63;;;19.99;100.00
8705;BME280;4389;41.932;25.904;2022-09-03T01:57:25;100226.16;;;20.04;100.00
8705;BME280;4389;41.932;25.904;2022-09-03T02:00:05;100222.41;;;19.92;100.00
8705;BME280;4389;41.932;25.904;2022-09-03T02:02:33;100231.06;;;19.88;100.00
8705;BME280;4389;41.932;25.904;2022-09-03T02:05:02;100228.81;;;19.91;100.00
8705;BME280;4389;41.932;25.904;2022-09-03T02:07:34;100224.91;;;19.94;100.00
8705;BME280;4389;41.932;25.904;2022-09-03T02:10:04;100236.06;;;19.97;100.00
8705;BME280;4389;41.932;25.904;2022-09-03T02:12:32;100230.69;;;19.97;100.00
8705;BME280;4389;41.932;25.904;2022-09-03T02:15:08;100230.03;;;19.89;100.00
8705;BME280;4389;41.932;25.904;2022-09-03T02:17:37;100237.66;;;19.85;100.00
8705;BME280;4389;41.932;25.904;2022-09-03T02:20:08;100239.72;;;19.83;100.00
8705;BME280;4389;41.932;25.904;2022-09-03T02:22:36;100242.84;;;19.80;100.00
8705;BME280;4389;41.932;25.904;2022-09-03T02:25:04;100247.16;;;19.81;100.00
8705;BME280;4389;41.932;25.904;2022-09-03T02:27:31;100241.81;;;19.81;100.00
8705;BME280;4389;41.932;25.904;2022-09-03T02:29:58;100237.28;;;19.82;100.00
8705;BME280;4389;41.932;25.904;2022-09-03T02:32:27;100234.16;;;19.78;100.00
8705;BME280;4389;41.932;25.904;2022-09-03T02:34:54;100237.41;;;19.74;100.00
8705;BME280;4389;41.932;25.904;2022-09-03T02:37:21;100237.22;;;19.75;100.00
8705;BME280;4389;41.932;25.904;2022-09-03T02:39:48;100224.84;;;19.74;100.00
8705;BME280;4389;41.932;25.904;2022-09-03T02:42:17;100224.22;;;19.72;100.00
8705;BME280;4389;41.932;25.904;2022-09-03T02:44:47;100219.84;;;19.65;100.00
8705;BME280;4389;41.932;25.904;2022-09-03T02:47:16;100237.34;;;19.54;100.00
8705;BME280;4389;41.932;25.904;2022-09-03T02:49:46;100227.47;;;19.61;100.00
8705;BME280;4389;41.932;25.904;2022-09-03T02:52:14;100233.09;;;19.73;100.00
8705;BME280;4389;41.932;25.904;2022-09-03T02:54:41;100240.16;;;19.80;100.00
8705;BME280;4389;41.932;25.904;2022-09-03T02:57:11;100238.50;;;19.79;100.00
8705;BME280;4389;41.932;25.904;2022-09-03T02:59:38;100236.44;;;19.81;100.00
8705;BME280;4389;41.932;25.904;2022-09-03T03:02:06;100238.09;;;19.82;100.00
8705;BME280;4389;41.932;25.904;2022-09-03T03:04:33;100242.41;;;19.77;100.00
8705;BME280;4389;41.932;25.904;2022-09-03T03:07:01;100245.53;;;19.80;100.00
8705;BME280;4389;41.932;25.904;2022-09-03T03:09:28;100245.53;;;19.80;100.00
8705;BME280;4389;41.932;25.904;2022-09-03T03:11:55;100234.38;;;19.83;100.00
8705;BME280;4389;41.932;25.904;2022-09-03T03:14:22;100236.47;;;19.94;100.00
8705;BME280;4389;41.932;25.904;2022-09-03T03:16:49;100238.13;;;19.95;100.00
8705;BME280;4389;41.932;25.904;2022-09-03T03:19:16;100243.88;;;19.92;100.00
8705;BME280;4389;41.932;25.904;2022-09-03T03:21:43;100241.63;;;19.89;100.00
8705;BME280;4389;41.932;25.904;2022-09-03T03:24:11;100240.19;;;19.93;100.00
8705;BME280;4389;41.932;25.904;2022-09-03T03:26:38;100241.00;;;19.87;100.00
8705;BME280;4389;41.932;25.904;2022-09-03T03:29:05;100230.25;;;19.87;100.00
8705;BME280;4389;41.932;25.904;2022-09-03T03:31:32;100233.50;;;19.76;100.00
8705;BME280;4389;41.932;25.904;2022-09-03T03:34:01;100225.69;;;19.75;100.00
8705;BME280;4389;41.932;25.904;2022-09-03T03:36:30;100230.66;;;19.84;100.00
8705;BME280;4389;41.932;25.904;2022-09-03T03:38:59;100234.00;;;19.93;100.00
8705;BME280;4389;41.932;25.904;2022-09-03T03:41:28;100229.03;;;19.96;100.00
8705;BME280;4389;41.932;25.904;2022-09-03T03:43:58;100235.63;;;19.94;100.00
8705;BME280;4389;41.932;25.904;2022-09-03T03:46:28;100232.94;;;19.87;100.00
8705;BME280;4389;41.932;25.904;2022-09-03T03:48:55;100239.78;;;19.90;100.00
8705;BME280;4389;41.932;25.904;2022-09-03T03:51:22;100239.56;;;19.91;100.00
8705;BME280;4389;41.932;25.904;2022-09-03T03:53:53;100236.88;;;19.91;100.00
8705;BME280;4389;41.932;25.904;2022-09-03T03:56:20;100239.38;;;19.99;100.00
8705;BME280;4389;41.932;25.904;2022-09-03T03:58:49;100246.44;;;20.00;100.00
8705;BME280;4389;41.932;25.904;2022-09-03T04:01:17;100251.78;;;20.00;100.00
8705;BME280;4389;41.932;25.904;2022-09-03T04:03:45;100257.03;;;20.08;100.00
8705;BME280;4389;41.932;25.904;2022-09-03T04:06:13;100262.59;;;20.13;100.00
8705;BME280;4389;41.932;25.904;2022-09-03T04:08:41;100260.38;;;20.23;100.00
8705;BME280;4389;41.932;25.904;2022-09-03T04:11:10;100263.06;;;20.30;100.00
8705;BME280;4389;41.932;25.904;2022-09-03T04:13:40;100251.25;;;20.24;100.00
8705;BME280;4389;41.932;25.904;2022-09-03T04:16:10;100265.97;;;20.41;100.00
8705;BME280;4389;41.932;25.904;2022-09-03T04:18:38;100266.41;;;20.51;100.00
8705;BME280;4389;41.932;25.904;2022-09-03T04:21:06;100268.06;;;20.59;100.00
8705;BME280;4389;41.932;25.904;2022-09-03T04:23:38;100269.75;;;20.66;100.00
8705;BME280;4389;41.932;25.904;2022-09-03T04:26:06;100266.47;;;20.90;100.00
8705;BME280;4389;41.932;25.904;2022-09-03T04:28:33;100276.81;;;21.06;100.00
8705;BME280;4389;41.932;25.904;2022-09-03T04:31:00;100283.63;;;21.22;100.00
8705;BME280;4389;41.932;25.904;2022-09-03T04:33:29;100291.25;;;21.44;100.00
8705;BME280;4389;41.932;25.904;2022-09-03T04:36:03;100287.25;;;21.73;100.00
8705;BME280;4389;41.932;25.904;2022-09-03T04:38:31;100282.47;;;21.81;100.00
8705;BME280;4389;41.932;25.904;2022-09-03T04:40:58;100284.53;;;21.86;100.00
8705;BME280;4389;41.932;25.904;2022-09-03T04:43:26;100292.41;;;21.87;100.00
8705;BME280;4389;41.932;25.904;2022-09-03T04:45:57;100289.28;;;21.90;100.00
8705;BME280;4389;41.932;25.904;2022-09-03T04:48:24;100290.75;;;21.86;100.00
8705;BME280;4389;41.932;25.904;2022-09-03T04:50:53;100285.16;;;21.81;100.00
8705;BME280;4389;41.932;25.904;2022-09-03T04:53:20;100291.41;;;21.75;100.00
8705;BME280;4389;41.932;25.904;2022-09-03T04:55:48;100293.06;;;21.76;100.00
8705;BME280;4389;41.932;25.904;2022-09-03T04:58:15;100294.09;;;21.62;100.00
8705;BME280;4389;41.932;25.904;2022-09-03T05:00:42;100282.75;;;21.47;100.00
8705;BME280;4389;41.932;25.904;2022-09-03T05:03:09;100288.72;;;21.75;100.00
8705;BME280;4389;41.932;25.904;2022-09-03T05:05:36;100297.88;;;21.55;100.00
8705;BME280;4389;41.932;25.904;2022-09-03T05:08:04;100297.44;;;21.58;100.00
8705;BME280;4389;41.932;25.904;2022-09-03T05:10:31;100299.03;;;21.85;100.00
8705;BME280;4389;41.932;25.904;2022-09-03T05:13:00;100308.28;;;22.08;100.00
8705;BME280;4389;41.932;25.904;2022-09-03T05:15:29;100310.72;;;22.16;100.00
8705;BME280;4389;41.932;25.904;2022-09-03T05:17:57;100316.28;;;22.28;100.00
8705;BME280;4389;41.932;25.904;2022-09-03T05:20:24;100311.09;;;22.26;100.00
8705;BME280;4389;41.932;25.904;2022-09-03T05:22:51;100317.59;;;22.12;100.00
8705;BME280;4389;41.932;25.904;2022-09-03T05:25:20;100315.31;;;22.09;100.00
8705;BME280;4389;41.932;25.904;2022-09-03T05:27:47;100325.84;;;22.24;100.00
8705;BME280;4389;41.932;25.904;2022-09-03T05:30:14;100329.28;;;22.37;100.00
8705;BME280;4389;41.932;25.904;2022-09-03T05:32:41;100323.69;;;22.39;100.00
8705;BME280;4389;41.932;25.904;2022-09-03T05:35:08;100328.69;;;22.42;100.00
8705;BME280;4389;41.932;25.904;2022-09-03T05:37:36;100320.47;;;22.17;100.00
8705;BME280;4389;41.932;25.904;2022-09-03T05:40:05;100322.38;;;22.10;100.00
8705;BME280;4389;41.932;25.904;2022-09-03T05:42:36;100320.13;;;22.07;100.00
8705;BME280;4389;41.932;25.904;2022-09-03T05:45:06;100325.50;;;22.01;100.00
8705;BME280;4389;41.932;25.904;2022-09-03T05:47:36;100326.72;;;22.11;99.26
8705;BME280;4389;41.932;25.904;2022-09-03T05:50:06;100327.19;;;21.95;100.00
8705;BME280;4389;41.932;25.904;2022-09-03T05:52:33;100335.53;;;21.87;100.00
8705;BME280;4389;41.932;25.904;2022-09-03T05:55:00;100348.31;;;21.98;100.00
8705;BME280;4389;41.932;25.904;2022-09-03T05:57:27;100350.56;;;22.08;100.00
8705;BME280;4389;41.932;25.904;2022-09-03T05:59:56;100348.28;;;22.11;100.00
8705;BME280;4389;41.932;25.904;2022-09-03T06:02:24;100357.41;;;22.10;99.28
8705;BME280;4389;41.932;25.904;2022-09-03T06:04:51;100364.50;;;21.98;99.87
8705;BME280;4389;41.932;25.904;2022-09-03T06:07:19;100363.50;;;21.86;100.00
8705;BME280;4389;41.932;25.904;2022-09-03T06:09:45;100360.38;;;21.89;100.00
8705;BME280;4389;41.932;25.904;2022-09-03T06:12:12;100364.53;;;21.92;100.00
8705;BME280;4389;41.932;25.904;2022-09-03T06:14:39;100368.81;;;22.12;100.00
8705;BME280;4389;41.932;25.904;2022-09-03T06:17:08;100371.84;;;22.35;99.06
8705;BME280;4389;41.932;25.904;2022-09-03T06:19:37;100370.53;;;22.51;98.51
8705;BME280;4389;41.932;25.904;2022-09-03T06:22:04;100369.47;;;22.58;97.47
8705;BME280;4389;41.932;25.904;2022-09-03T06:24:31;100371.66;;;22.74;96.26
8705;BME280;4389;41.932;25.904;2022-09-03T06:26:58;100373.69;;;22.85;94.61
8705;BME280;4389;41.932;25.904;2022-09-03T06:29:25;100380.91;;;22.91;94.88
8705;BME280;4389;41.932;25.904;2022-09-03T06:31:52;100383.56;;;22.98;93.26
8705;BME280;4389;41.932;25.904;2022-09-03T06:34:22;100383.78;;;23.27;91.35
8705;BME280;4389;41.932;25.904;2022-09-03T06:36:51;100382.22;;;23.07;91.72
8705;BME280;4389;41.932;25.904;2022-09-03T06:39:19;100387.28;;;23.52;90.92
8705;BME280;4389;41.932;25.904;2022-09-03T06:41:45;100384.41;;;23.72;90.36
8705;BME280;4389;41.932;25.904;2022-09-03T06:44:12;100388.50;;;23.81;88.72
8705;BME280;4389;41.932;25.904;2022-09-03T06:46:40;100383.63;;;23.89;88.97
8705;BME280;4389;41.932;25.904;2022-09-03T06:49:08;100391.25;;;23.74;88.36
8705;BME280;4389;41.932;25.904;2022-09-03T06:51:37;100392.38;;;23.91;88.21
8705;BME280;4389;41.932;25.904;2022-09-03T06:54:06;100393.72;;;24.00;88.10
8705;BME280;4389;41.932;25.904;2022-09-03T06:56:34;100400.97;;;23.82;88.37
8705;BME280;4389;41.932;25.904;2022-09-03T06:59:04;100402.06;;;23.99;87.54
8705;BME280;4389;41.932;25.904;2022-09-03T07:01:32;100406.75;;;23.85;87.90
8705;BME280;4389;41.932;25.904;2022-09-03T07:04:01;100412.81;;;24.05;87.24
8705;BME280;4389;41.932;25.904;2022-09-03T07:06:30;100414.63;;;24.29;85.93
8705;BME280;4389;41.932;25.904;2022-09-03T07:08:59;100405.44;;;24.48;83.82
8705;BME280;4389;41.932;25.904;2022-09-03T07:11:27;100411.50;;;24.08;85.20
8705;BME280;4389;41.932;25.904;2022-09-03T07:13:56;100410.88;;;24.12;86.35
8705;BME280;4389;41.932;25.904;2022-09-03T07:16:24;100413.66;;;24.24;85.38
8705;BME280;4389;41.932;25.904;2022-09-03T07:18:52;100414.78;;;24.34;84.86
8705;BME280;4389;41.932;25.904;2022-09-03T07:21:21;100411.75;;;24.60;84.59
8705;BME280;4389;41.932;25.904;2022-09-03T07:23:48;100411.91;;;24.65;83.29
8705;BME280;4389;41.932;25.904;2022-09-03T07:26:18;100422.88;;;24.16;85.27
8705;BME280;4389;41.932;25.904;2022-09-03T07:28:46;100414.91;;;24.21;85.32
8705;BME280;4389;41.932;25.904;2022-09-03T07:31:15;100408.28;;;24.17;85.72
8705;BME280;4389;41.932;25.904;2022-09-03T07:33:44;100415.94;;;24.38;84.71
8705;BME280;4389;41.932;25.904;2022-09-03T07:36:13;100420.34;;;24.57;83.96
8705;BME280;4389;41.932;25.904;2022-09-03T07:38:42;100419.81;;;24.66;83.93
8705;BME280;4389;41.932;25.904;2022-09-03T07:41:10;100429.88;;;24.89;83.60
8705;BME280;4389;41.932;25.904;2022-09-03T07:43:40;100429.94;;;25.30;83.24
8705;BME280;4389;41.932;25.904;2022-09-03T07:46:08;100421.16;;;24.87;82.58
8705;BME280;4389;41.932;25.904;2022-09-03T07:48:38;100430.91;;;24.76;83.70
8705;BME280;4389;41.932;25.904;2022-09-03T07:51:05;100431.78;;;24.88;82.81
8705;BME280;4389;41.932;25.904;2022-09-03T07:53:33;100423.38;;;25.08;83.32
8705;BME280;4389;41.932;25.904;2022-09-03T07:56:02;100419.59;;;25.09;82.05
8705;BME280;4389;41.932;25.904;2022-09-03T07:58:30;100408.75;;;25.09;81.97
8705;BME280;4389;41.932;25.904;2022-09-03T08:01:03;100413.25;;;25.15;80.96
8705;BME280;4389;41.932;25.904;2022-09-03T08:03:33;100409.84;;;25.49;80.21
8705;BME280;4389;41.932;25.904;2022-09-03T08:06:01;100408.16;;;25.36;80.46
8705;BME280;4389;41.932;25.904;2022-09-03T08:08:29;100418.97;;;25.25;79.54
8705;BME280;4389;41.932;25.904;2022-09-03T08:11:03;100409.78;;;25.26;81.29
8705;BME280;4389;41.932;25.904;2022-09-03T08:13:30;100402.31;;;25.21;81.14
8705;BME280;4389;41.932;25.904;2022-09-03T08:15:59;100394.00;;;25.23;81.78
8705;BME280;4389;41.932;25.904;2022-09-03T08:18:26;100388.94;;;25.26;81.12
8705;BME280;4389;41.932;25.904;2022-09-03T08:21:04;100389.16;;;25.25;81.29
8705;BME280;4389;41.932;25.904;2022-09-03T08:23:32;100387.44;;;25.42;80.63
8705;BME280;4389;41.932;25.904;2022-09-03T08:25:59;100387.22;;;25.55;81.42
8705;BME280;4389;41.932;25.904;2022-09-03T08:28:26;100381.78;;;25.78;80.41
8705;BME280;4389;41.932;25.904;2022-09-03T08:30:53;100389.72;;;25.91;78.65
8705;BME280;4389;41.932;25.904;2022-09-03T08:33:25;100387.22;;;25.78;78.71
8705;BME280;4389;41.932;25.904;2022-09-03T08:36:03;100373.28;;;25.86;78.12
8705;BME280;4389;41.932;25.904;2022-09-03T08:38:31;100382.22;;;26.21;77.65
8705;BME280;4389;41.932;25.904;2022-09-03T08:41:03;100395.22;;;26.19;76.78
8705;BME280;4389;41.932;25.904;2022-09-03T08:43:30;100384.16;;;26.48;76.14
8705;BME280;4389;41.932;25.904;2022-09-03T08:46:02;100394.38;;;26.69;76.90
8705;BME280;4389;41.932;25.904;2022-09-03T08:48:32;100395.16;;;26.42;74.66
8705;BME280;4389;41.932;25.904;2022-09-03T08:51:00;100371.56;;;26.70;73.37
8705;BME280;4389;41.932;25.904;2022-09-03T08:53:37;100371.81;;;27.13;71.96
8705;BME280;4389;41.932;25.904;2022-09-03T08:56:08;100377.41;;;27.35;70.94
8705;BME280;4389;41.932;25.904;2022-09-03T08:58:36;100384.22;;;27.21;71.40
8705;BME280;4389;41.932;25.904;2022-09-03T09:01:10;100371.56;;;26.98;71.17
8705;BME280;4389;41.932;25.904;2022-09-03T09:03:50;100378.69;;;26.88;71.93
8705;BME280;4389;41.932;25.904;2022-09-03T09:06:27;100385.75;;;27.00;70.27
8705;BME280;4389;41.932;25.904;2022-09-03T09:09:04;100375.00;;;27.22;69.86
8705;BME280;4389;41.932;25.904;2022-09-03T09:11:49;100383.91;;;27.50;67.81
8705;BME280;4389;41.932;25.904;2022-09-03T09:14:24;100380.28;;;27.78;67.81
8705;BME280;4389;41.932;25.904;2022-09-03T09:16:58;100383.09;;;27.83;69.31
8705;BME280;4389;41.932;25.904;2022-09-03T09:19:38;100395.88;;;27.49;70.88
8705;BME280;4389;41.932;25.904;2022-09-03T09:22:11;100373.84;;;27.18;71.83
8705;BME280;4389;41.932;25.904;2022-09-03T09:24:42;100375.91;;;27.27;69.57
8705;BME280;4389;41.932;25.904;2022-09-03T09:27:13;100375.75;;;27.50;69.00
8705;BME280;4389;41.932;25.904;2022-09-03T09:29:42;100375.25;;;27.53;69.74
8705;BME280;4389;41.932;25.904;2022-09-03T09:32:13;100375.66;;;27.29;69.74
8705;BME280;4389;41.932;25.904;2022-09-03T09:34:43;100379.69;;;26.82;70.04
8705;BME280;4389;41.932;25.904;2022-09-03T09:37:11;100374.16;;;26.77;71.19
8705;BME280;4389;41.932;25.904;2022-09-03T09:39:39;100380.28;;;27.28;69.37
8705;BME280;4389;41.932;25.904;2022-09-03T09:42:08;100373.75;;;27.62;68.04
8705;BME280;4389;41.932;25.904;2022-09-03T09:44:37;100381.16;;;27.67;67.06
8705;BME280;4389;41.932;25.904;2022-09-03T09:47:06;100374.50;;;27.58;68.33
8705;BME280;4389;41.932;25.904;2022-09-03T09:49:36;100374.81;;;27.45;68.39
8705;BME280;4389;41.932;25.904;2022-09-03T09:52:10;100375.00;;;27.55;69.09
8705;BME280;4389;41.932;25.904;2022-09-03T09:54:38;100380.66;;;27.70;68.98
8705;BME280;4389;41.932;25.904;2022-09-03T09:57:07;100378.38;;;27.62;69.59
8705;BME280;4389;41.932;25.904;2022-09-03T09:59:34;100371.25;;;27.94;67.63
8705;BME280;4389;41.932;25.904;2022-09-03T10:02:08;100366.72;;;27.99;66.35
8705;BME280;4389;41.932;25.904;2022-09-03T10:04:36;100370.97;;;28.12;66.00
8705;BME280;4389;41.932;25.904;2022-09-03T10:07:15;100367.34;;;28.28;64.01
8705;BME280;4389;41.932;25.904;2022-09-03T10:09:44;100364.63;;;28.28;64.68
8705;BME280;4389;41.932;25.904;2022-09-03T10:12:14;100378.97;;;28.40;65.32
8705;BME280;4389;41.932;25.904;2022-09-03T10:14:48;100379.28;;;28.43;63.84
8705;BME280;4389;41.932;25.904;2022-09-03T10:17:19;100377.84;;;28.62;62.68
8705;BME280;4389;41.932;25.904;2022-09-03T10:19:55;100382.06;;;28.48;62.71
8705;BME280;4389;41.932;25.904;2022-09-03T10:22:51;100382.88;;;28.49;64.22
8705;BME280;4389;41.932;25.904;2022-09-03T10:25:20;100383.34;;;28.41;63.02
8705;BME280;4389;41.932;25.904;2022-09-03T10:27:50;100383.84;;;28.38;63.34
8705;BME280;4389;41.932;25.904;2022-09-03T10:30:18;100392.16;;;28.48;62.38
8705;BME280;4389;41.932;25.904;2022-09-03T10:32:55;100392.75;;;28.12;63.25
8705;BME280;4389;41.932;25.904;2022-09-03T10:35:29;100385.22;;;28.19;62.00
8705;BME280;4389;41.932;25.904;2022-09-03T10:38:11;100378.97;;;28.40;62.12
8705;BME280;4389;41.932;25.904;2022-09-03T10:40:48;100371.09;;;28.65;60.52
8705;BME280;4389;41.932;25.904;2022-09-03T10:43:31;100369.38;;;29.07;59.23
8705;BME280;4389;41.932;25.904;2022-09-03T10:46:06;100370.69;;;29.31;58.22
8705;BME280;4389;41.932;25.904;2022-09-03T10:48:54;100369.66;;;29.10;60.98
8705;BME280;4389;41.932;25.904;2022-09-03T10:51:34;100359.31;;;28.86;61.39
8705;BME280;4389;41.932;25.904;2022-09-03T10:56:59;100360.47;;;28.42;63.56
8705;BME280;4389;41.932;25.904;2022-09-03T11:02:50;100364.63;;;28.28;61.37
8705;BME280;4389;41.932;25.904;2022-09-03T11:05:28;100357.13;;;28.56;61.78
8705;BME280;4389;41.932;25.904;2022-09-03T11:08:00;100363.38;;;28.83;59.34
8705;BME280;4389;41.932;25.904;2022-09-03T11:10:34;100357.44;;;28.91;60.54
8705;BME280;4389;41.932;25.904;2022-09-03T11:13:08;100362.19;;;28.96;58.87
8705;BME280;4389;41.932;25.904;2022-09-03T11:15:41;100352.84;;;28.92;59.02
8705;BME280;4389;41.932;25.904;2022-09-03T11:18:17;100349.19;;;29.08;57.83
8705;BME280;4389;41.932;25.904;2022-09-03T11:20:46;100346.53;;;29.13;58.13
8705;BME280;4389;41.932;25.904;2022-09-03T11:23:15;100344.34;;;29.15;57.75
8705;BME280;4389;41.932;25.904;2022-09-03T11:25:48;100354.03;;;29.01;58.56
8705;BME280;4389;41.932;25.904;2022-09-03T11:28:25;100361.25;;;28.90;58.59
8705;BME280;4389;41.932;25.904;2022-09-03T11:31:17;100358.59;;;28.69;60.02
8705;BME280;4389;41.932;25.904;2022-09-03T11:33:53;100358.75;;;28.84;59.61
8705;BME280;4389;41.932;25.904;2022-09-03T11:36:28;100360.81;;;28.98;57.52
8705;BME280;4389;41.932;25.904;2022-09-03T11:38:56;100354.03;;;29.01;57.35
8705;BME280;4389;41.932;25.904;2022-09-03T11:41:26;100366.56;;;29.28;57.09
8705;BME280;4389;41.932;25.904;2022-09-03T11:43:53;100366.28;;;29.25;55.73
8705;BME280;4389;41.932;25.904;2022-09-03T11:46:28;100364.03;;;29.17;56.65
8705;BME280;4389;41.932;25.904;2022-09-03T11:49:07;100364.44;;;29.04;55.88
8705;BME280;4389;41.932;25.904;2022-09-03T11:51:36;100353.72;;;29.24;55.50
8705;BME280;4389;41.932;25.904;2022-09-03T11:54:05;100346.25;;;29.46;55.96
8705;BME280;4389;41.932;25.904;2022-09-03T11:56:35;100342.63;;;29.72;54.93
8705;BME280;4389;41.932;25.904;2022-09-03T11:59:14;100338.38;;;29.91;53.74
8705;BME280;4389;41.932;25.904;2022-09-03T12:01:45;100339.22;;;29.91;53.64
8705;BME280;4389;41.932;25.904;2022-09-03T12:04:18;100342.19;;;29.90;53.44
8705;BME280;4389;41.932;25.904;2022-09-03T12:07:16;100328.03;;;29.98;53.21
8705;BME280;4389;41.932;25.904;2022-09-03T12:09:56;100335.19;;;30.09;53.39
8705;BME280;4389;41.932;25.904;2022-09-03T12:12:50;100338.19;;;29.61;53.57
8705;BME280;4389;41.932;25.904;2022-09-03T12:15:34;100327.91;;;29.78;52.69
8705;BME280;4389;41.932;25.904;2022-09-03T12:18:06;100326.91;;;29.94;52.28
8705;BME280;4389;41.932;25.904;2022-09-03T12:20:58;100325.13;;;30.19;51.21
8705;BME280;4389;41.932;25.904;2022-09-03T12:23:27;100329.81;;;30.24;50.64
8705;BME280;4389;41.932;25.904;2022-09-03T12:25:56;100326.13;;;30.59;50.40
8705;BME280;4389;41.932;25.904;2022-09-03T12:28:29;100326.06;;;30.49;49.74
8705;BME280;4389;41.932;25.904;2022-09-03T12:31:08;100323.28;;;30.34;50.17
8705;BME280;4389;41.932;25.904;2022-09-03T12:33:46;100324.75;;;30.01;52.89
8705;BME280;4389;41.932;25.904;2022-09-03T12:36:13;100323.69;;;30.07;51.75
8705;BME280;4389;41.932;25.904;2022-09-03T12:38:41;100329.03;;;30.28;51.49
8705;BME280;4389;41.932;25.904;2022-09-03T12:41:19;100322.47;;;30.39;51.33
8705;BME280;4389;41.932;25.904;2022-09-03T12:43:52;100321.44;;;29.94;51.47
8705;BME280;4389;41.932;25.904;2022-09-03T12:46:22;100317.66;;;29.95;52.21
8705;BME280;4389;41.932;25.904;2022-09-03T12:48:57;100315.22;;;30.03;51.32
8705;BME280;4389;41.932;25.904;2022-09-03T12:51:39;100321.13;;;30.41;51.35
8705;BME280;4389;41.932;25.904;2022-09-03T12:54:09;100328.59;;;30.66;50.57
8705;BME280;4389;41.932;25.904;2022-09-03T12:56:41;100321.75;;;30.58;51.41
8705;BME280;4389;41.932;25.904;2022-09-03T12:59:12;100324.44;;;30.53;50.73
8705;BME280;4389;41.932;25.904;2022-09-03T13:01:45;100315.19;;;30.59;50.96
8705;BME280;4389;41.932;25.904;2022-09-03T13:04:17;100311.34;;;30.60;50.82
8705;BME280;4389;41.932;25.904;2022-09-03T13:06:49;100314.69;;;30.67;51.86
8705;BME280;4389;41.932;25.904;2022-09-03T13:09:21;100310.03;;;30.73;52.57
8705;BME280;4389;41.932;25.904;2022-09-03T13:11:49;100304.28;;;30.69;51.54
8705;BME280;4389;41.932;25.904;2022-09-03T13:14:18;100314.56;;;30.42;52.43
8705;BME280;4389;41.932;25.904;2022-09-03T13:17:09;100312.59;;;30.23;51.63
8705;BME280;4389;41.932;25.904;2022-09-03T13:19:46;100317.25;;;30.27;52.07
8705;BME280;4389;41.932;25.904;2022-09-03T13:22:23;100318.91;;;30.28;52.01
8705;BME280;4389;41.932;25.904;2022-09-03T13:25:11;100311.66;;;29.98;51.32
8705;BME280;4389;41.932;25.904;2022-09-03T13:27:44;100316.50;;;29.81;51.39